Terminal Aerodrome Forecast
Issued by NWS Detroit/Pontiac, MI

Home | Current Version | Previous Version | Text Only | Print | Product List | Glossary On
Versions: 1 2 3 4 5 6 7 8 9 10 11 12 13 14 15 16 17 18 19 20
000
FTUS43 KDTX 011120
TAFDTW
TAF
KDTW 011120Z 0112/0218 20003KT P6SM -SN BKN040 OVC080
     FM011900 23006KT 2SM -SN OVC025
     FM012300 25010KT P6SM BKN030 OVC100
     FM021000 30012KT P6SM BKN025=

USA.gov is the U.S. government's official web portal to all federal, state and local government web resources and services.